Terminal Aerodrome Forecast
Issued by NWS

Home | Current Version | Previous Version | Text Only | Print | Product List | Glossary Off
Versions: 1 2 3 4 5 6 7 8 9 10 11 12 13 14 15

574
FTUS43 KMPX 302033 AAB
TAFRWF
TAF AMD
KRWF 302033Z 3021/0118 32012G20KT P6SM VCSH BKN010 OVC014
      TEMPO 3021/3024 4SM -RASN BR SCT007 OVC014
     FM010000 32010KT 5SM -RASN BR SCT004 OVC006
     FM010200 32008KT 4SM -SN OVC008
     FM010600 32011KT P6SM OVC010
     FM011200 33008KT P6SM OVC020=

USA.gov is the U.S. government's official web portal to all federal, state and local government web resources and services.